Time;durP1;ratioP1;P1;durP2;ratioP2;P2;SDS_P1;SDS_P2;PMS_P1;PMS_P2;Temp;Humidity;BMP_temperature;BMP_pressure;BME280_temperature;BME280_humidity;BME280_pressure;Samples;Min_cycle;Max_cycle;Signal;HPM_P1;HPM_P2
2022/11/07 00:02:46;;;;;;;;;;;;;;;;;;10352266;28;20011;-77
2022/11/07 00:07:46;;;;;;;;;;;;;;;;;;10354665;28;20677;-76
2022/11/07 00:12:46;;;;;;;;;;;;;;;;;;10328435;28;19917;-78
2022/11/07 00:17:47;;;;;;;;;;;;;;;;;;10320343;28;19921;-79
2022/11/07 00:22:47;;;;;;;;;;;;;;;;;;10330404;28;19925;-80
2022/11/07 00:27:47;;;;;;;;;;;;;;;;;;10334938;28;19964;-77
2022/11/07 00:32:47;;;;;;;;;;;;;;;;;;10332869;28;20541;-77
2022/11/07 00:37:48;;;;;;;;;;;;;;;;;;10342397;28;19925;-77
2022/11/07 00:42:48;;;;;;;;;;;;;;;;;;10336832;28;20409;-77
2022/11/07 00:47:50;;;;;;;;;;;;;;;;;;10350505;28;20350;-78
2022/11/07 00:52:52;;;;;;;;;;;;;;;;;;10349269;28;19943;-78
2022/11/07 00:57:53;;;;;;;;;;;;;;;;;;10341175;28;19921;-78
2022/11/07 01:08:15;;;;;;;;;;;;;;;;;;10348171;28;19921;-79
2022/11/07 01:13:17;;;;;;;;;;;;;;;;;;10347228;28;19933;-78
2022/11/07 01:18:17;;;;;;;;;;;;;;;;;;10337406;28;20330;-80
2022/11/07 01:23:18;;;;;;;;;;;;;;;;;;10329018;28;19932;-78
2022/11/07 01:28:18;;;;;;;;;;;;;;;;;;10338031;28;19984;-77
2022/11/07 01:33:18;;;;;;;;;;;;;;;;;;10340317;28;19929;-77
2022/11/07 01:38:19;;;;;;;;;;;;;;;;;;10367203;28;19921;-78
2022/11/07 01:43:19;;;;;;;;;;;;;;;;;;10359771;28;19929;-78
2022/11/07 01:48:20;;;;;;;;;;;;;;;;;;10334920;28;19917;-78
2022/11/07 01:53:20;;;;;;;;;;;;;;;;;;10335791;28;20292;-76
2022/11/07 01:58:20;;;;;;;;;;;;;;;;;;10335266;28;19962;-76
2022/11/07 02:03:20;;;;;;;;;;;;;;;;;;10324684;28;20297;-77
2022/11/07 02:08:21;;;;;;;;;;;;;;;;;;10330067;28;19925;-77
2022/11/07 02:13:21;;;;;;;;;;;;;;;;;;10339488;28;19918;-77
2022/11/07 02:18:22;;;;;;;;;;;;;;;;;;10345971;28;20288;-78
2022/11/07 02:23:25;;;;;;;;;;;;;;;;;;10335625;28;19930;-78
2022/11/07 02:28:26;;;;;;;;;;;;;;;;;;10340462;28;19972;-79
2022/11/07 02:33:27;;;;;;;;;;;;;;;;;;10346009;28;20794;-78
2022/11/07 02:38:33;;;;;;;;;;;;;;;;;;10343221;28;20390;-76
2022/11/07 02:43:34;;;;;;;;;;;;;;;;;;10339581;28;20346;-78
2022/11/07 02:48:35;;;;;;;;;;;;;;;;;;10351181;28;19922;-79
2022/11/07 02:53:35;;;;;;;;;;;;;;;;;;10349905;28;19929;-75
2022/11/07 02:58:35;;;;;;;;;;;;;;;;;;10340064;28;20005;-75
2022/11/07 03:03:37;;;;;;;;;;;;;;;;;;10352344;28;19976;-76
2022/11/07 03:08:38;;;;;;;;;;;;;;;;;;10354421;28;19921;-74
2022/11/07 03:13:38;;;;;;;;;;;;;;;;;;10340161;28;19978;-76
2022/11/07 03:18:39;;;;;;;;;;;;;;;;;;10334685;28;19922;-77
2022/11/07 03:23:41;;;;;;;;;;;;;;;;;;10339914;28;19969;-77
2022/11/07 03:28:42;;;;;;;;;;;;;;;;;;10354194;28;20338;-76
2022/11/07 03:33:43;;;;;;;;;;;;;;;;;;10349622;28;19929;-76
2022/11/07 03:38:43;;;;;;;;;;;;;;;;;;10336435;28;20017;-77
2022/11/07 03:43:44;;;;;;;;;;;;;;;;;;10339278;28;19977;-76
2022/11/07 03:48:44;;;;;;;;;;;;;;;;;;10343783;28;19922;-76
2022/11/07 03:53:44;;;;;;;;;;;;;;;;;;10359884;28;19921;-77
2022/11/07 03:58:46;;;;;;;;;;;;;;;;;;10355839;28;19926;-78
2022/11/07 04:03:47;;;;;;;;;;;;;;;;;;10324072;28;19922;-78
2022/11/07 04:08:47;;;;;;;;;;;;;;;;;;10341288;28;19918;-76
2022/11/07 04:19:07;;;;;;;;;;;;;;;;;;10351209;28;19928;-78
2022/11/07 04:24:09;;;;;;;;;;;;;;;;;;10330762;28;19930;-79
2022/11/07 04:29:09;;;;;;;;;;;;;;;;;;10365509;28;19929;-79
2022/11/07 04:34:09;;;;;;;;;;;;;;;;;;10392729;28;19910;-79
2022/11/07 04:39:12;;;;;;;;;;;;;;;;;;10394582;28;19918;-79
2022/11/07 04:44:13;;;;;;;;;;;;;;;;;;10361933;28;20012;-79
2022/11/07 04:49:14;;;;;;;;;;;;;;;;;;10338128;28;20008;-80
2022/11/07 04:54:14;;;;;;;;;;;;;;;;;;10336423;28;20012;-81
2022/11/07 04:59:15;;;;;;;;;;;;;;;;;;10346130;28;19983;-80
2022/11/07 05:04:15;;;;;;;;;;;;;;;;;;10345651;28;19945;-78
2022/11/07 05:09:16;;;;;;;;;;;;;;;;;;10337683;28;19932;-78
2022/11/07 05:14:18;;;;;;;;;;;;;;;;;;10350632;28;20297;-79
2022/11/07 05:19:19;;;;;;;;;;;;;;;;;;10333997;28;19972;-78
2022/11/07 05:24:19;;;;;;;;;;;;;;;;;;10336461;28;20355;-80
2022/11/07 05:29:19;;;;;;;;;;;;;;;;;;10340995;28;19918;-77
2022/11/07 05:34:20;;;;;;;;;;;;;;;;;;10338124;28;19925;-77
2022/11/07 05:39:20;;;;;;;;;;;;;;;;;;10341627;28;19921;-78
2022/11/07 05:44:20;;;;;;;;;;;;;;;;;;10349717;28;19929;-77
2022/11/07 05:49:20;;;;;;;;;;;;;;;;;;10336298;28;19918;-77
2022/11/07 05:54:22;;;;;;;;;;;;;;;;;;10337068;28;19922;-77
2022/11/07 05:59:22;;;;;;;;;;;;;;;;;;10331863;28;20469;-77
2022/11/07 06:04:22;;;;;;;;;;;;;;;;;;10340238;28;19930;-78
2022/11/07 06:09:23;;;;;;;;;;;;;;;;;;10335567;28;20020;-77
2022/11/07 06:14:23;;;;;;;;;;;;;;;;;;10345038;28;20059;-77
2022/11/07 06:19:23;;;;;;;;;;;;;;;;;;10332795;28;19921;-77
2022/11/07 06:24:23;;;;;;;;;;;;;;;;;;10344920;28;19959;-77
2022/11/07 06:29:24;;;;;;;;;;;;;;;;;;10339868;28;20305;-78
2022/11/07 06:34:24;;;;;;;;;;;;;;;;;;10353498;28;20662;-80
2022/11/07 06:39:24;;;;;;;;;;;;;;;;;;10318394;28;20389;-78
2022/11/07 06:44:26;;;;;;;;;;;;;;;;;;10345316;28;20292;-76
2022/11/07 06:49:29;;;;;;;;;;;;;;;;;;10336242;28;19972;-77
2022/11/07 06:54:29;;;;;;;;;;;;;;;;;;10356175;28;19918;-77
2022/11/07 06:59:30;;;;;;;;;;;;;;;;;;10390088;28;19913;-79
2022/11/07 07:04:32;;;;;;;;;;;;;;;;;;10378842;28;20477;-79
2022/11/07 07:09:36;;;;;;;;;;;;;;;;;;10363001;28;20004;-79
2022/11/07 07:14:36;;;;;;;;;;;;;;;;;;10366522;28;19933;-78
2022/11/07 07:19:36;;;;;;;;;;;;;;;;;;10383478;28;19922;-84
2022/11/07 07:24:36;;;;;;;;;;;;;;;;;;10401826;28;19929;-82
2022/11/07 07:29:37;;;;;;;;;;;;;;;;;;10393704;28;19905;-84
2022/11/07 07:34:39;;;;;;;;;;;;;;;;;;10399311;28;19913;-80
2022/11/07 07:39:39;;;;;;;;;;;;;;;;;;10403550;28;20052;-86
2022/11/07 07:44:39;;;;;;;;;;;;;;;;;;10401749;28;19976;-83
2022/11/07 07:49:41;;;;;;;;;;;;;;;;;;10371172;28;20020;-77
2022/11/07 07:54:41;;;;;;;;;;;;;;;;;;10352036;28;19917;-80
2022/11/07 07:59:42;;;;;;;;;;;;;;;;;;10348182;28;20392;-76
2022/11/07 08:04:45;;;;;;;;;;;;;;;;;;10347487;28;20369;-78
2022/11/07 08:09:45;;;;;;;;;;;;;;;;;;10348913;28;20037;-77
2022/11/07 08:14:45;;;;;;;;;;;;;;;;;;10361429;28;19925;-77
2022/11/07 08:19:46;;;;;;;;;;;;;;;;;;10348198;28;19936;-78
2022/11/07 08:24:47;;;;;;;;;;;;;;;;;;10365150;28;19930;-77
2022/11/07 08:29:47;;;;;;;;;;;;;;;;;;10371038;28;19948;-77
2022/11/07 08:34:47;;;;;;;;;;;;;;;;;;10338194;28;19972;-78
2022/11/07 08:39:47;;;;;;;;;;;;;;;;;;10345411;28;19921;-77
2022/11/07 08:44:48;;;;;;;;;;;;;;;;;;10339729;28;19929;-77
2022/11/07 08:49:48;;;;;;;;;;;;;;;;;;10338858;28;19917;-78
2022/11/07 08:54:48;;;;;;;;;;;;;;;;;;10351442;28;19925;-77
2022/11/07 08:59:49;;;;;;;;;;;;;;;;;;10331307;28;19922;-76
2022/11/07 09:04:49;;;;;;;;;;;;;;;;;;10342622;28;20008;-76
2022/11/07 09:09:49;;;;;;;;;;;;;;;;;;10335311;28;19929;-79
2022/11/07 09:14:49;;;;;;;;;;;;;;;;;;10341699;28;20350;-77
2022/11/07 09:19:51;;;;;;;;;;;;;;;;;;10336959;28;20289;-77
2022/11/07 09:24:51;;;;;;;;;;;;;;;;;;10376218;28;19932;-77
2022/11/07 09:29:52;;;;;;;;;;;;;;;;;;10366054;28;19952;-77
2022/11/07 09:34:53;;;;;;;;;;;;;;;;;;10353872;28;19933;-75
2022/11/07 09:39:55;;;;;;;;;;;;;;;;;;10336192;28;20023;-75
2022/11/07 09:44:55;;;;;;;;;;;;;;;;;;10349380;28;19933;-76
2022/11/07 09:49:55;;;;;;;;;;;;;;;;;;10334243;28;19921;-76
2022/11/07 09:54:56;;;;;;;;;;;;;;;;;;10342810;28;19922;-76
2022/11/07 09:59:56;;;;;;;;;;;;;;;;;;10338400;28;20289;-76
2022/11/07 10:04:57;;;;;;;;;;;;;;;;;;10346186;28;19929;-76
2022/11/07 10:09:58;;;;;;;;;;;;;;;;;;10349108;28;19968;-76
2022/11/07 10:14:58;;;;;;;;;;;;;;;;;;10328083;28;20017;-77
2022/11/07 10:19:58;;;;;;;;;;;;;;;;;;10335813;28;19936;-76
2022/11/07 10:24:59;;;;;;;;;;;;;;;;;;10316572;28;19930;-78
2022/11/07 10:29:59;;;;;;;;;;;;;;;;;;10340272;28;19929;-76
2022/11/07 10:34:59;;;;;;;;;;;;;;;;;;10343342;28;20451;-78
2022/11/07 10:40:00;;;;;;;;;;;;;;;;;;10345776;28;19972;-77
2022/11/07 10:45:00;;;;;;;;;;;;;;;;;;10333685;28;19973;-77
2022/11/07 10:50:02;;;;;;;;;;;;;;;;;;10338080;28;19928;-77
2022/11/07 10:55:02;;;;;;;;;;;;;;;;;;10359434;28;19928;-77
2022/11/07 11:00:04;;;;;;;;;;;;;;;;;;10340400;28;19921;-77
2022/11/07 11:05:05;;;;;;;;;;;;;;;;;;10362043;28;19929;-77
2022/11/07 11:10:05;;;;;;;;;;;;;;;;;;10358811;28;19932;-76
2022/11/07 11:15:07;;;;;;;;;;;;;;;;;;10369133;28;19917;-77
2022/11/07 11:20:08;;;;;;;;;;;;;;;;;;10356142;28;19921;-77
2022/11/07 11:25:08;;;;;;;;;;;;;;;;;;10327474;28;19929;-77
2022/11/07 11:30:09;;;;;;;;;;;;;;;;;;10338317;28;19984;-77
2022/11/07 11:35:11;;;;;;;;;;;;;;;;;;10341916;28;20471;-77
2022/11/07 11:40:12;;;;;;;;;;;;;;;;;;10360889;28;19921;-79
2022/11/07 11:45:13;;;;;;;;;;;;;;;;;;10348973;28;19971;-76
2022/11/07 11:50:14;;;;;;;;;;;;;;;;;;10351291;28;19917;-77
2022/11/07 11:55:14;;;;;;;;;;;;;;;;;;10363623;28;19942;-78
2022/11/07 12:00:14;;;;;;;;;;;;;;;;;;10355062;28;20382;-78
2022/11/07 12:05:15;;;;;;;;;;;;;;;;;;10338770;28;20894;-79
2022/11/07 12:10:15;;;;;;;;;;;;;;;;;;10362142;28;19926;-78
2022/11/07 12:15:15;;;;;;;;;;;;;;;;;;10346148;28;19917;-77
2022/11/07 12:20:17;;;;;;;;;;;;;;;;;;10364104;28;19924;-79
2022/11/07 12:25:17;;;;;;;;;;;;;;;;;;10365043;28;19926;-77
2022/11/07 12:30:18;;;;;;;;;;;;;;;;;;10367285;28;19921;-77
2022/11/07 12:35:19;;;;;;;;;;;;;;;;;;10368686;28;19922;-78
2022/11/07 12:40:21;;;;;;;;;;;;;;;;;;10354488;28;19922;-78
2022/11/07 12:45:21;;;;;;;;;;;;;;;;;;10343587;28;19945;-79
2022/11/07 12:50:24;;;;;;;;;;;;;;;;;;10359383;28;20008;-78
2022/11/07 12:55:24;;;;;;;;;;;;;;;;;;10367123;28;20009;-78
2022/11/07 13:00:25;;;;;;;;;;;;;;;;;;10342018;28;19926;-79
2022/11/07 13:05:26;;;;;;;;;;;;;;;;;;10338459;28;20016;-79
2022/11/07 13:10:26;;;;;;;;;;;;;;;;;;10374648;28;19964;-80
2022/11/07 13:15:27;;;;;;;;;;;;;;;;;;10370195;28;20128;-79
2022/11/07 13:20:49;;;;;;;;;;;;;;;;;;10392941;28;20055;-79
2022/11/07 13:25:49;;;;;;;;;;;;;;;;;;10401375;28;20720;-79
2022/11/07 13:30:51;;;;;;;;;;;;;;;;;;10401652;28;20262;-80
2022/11/07 13:35:53;;;;;;;;;;;;;;;;;;10403270;28;19925;-80
2022/11/07 13:40:57;;;;;;;;;;;;;;;;;;10415934;28;19921;-79
2022/11/07 13:45:58;;;;;;;;;;;;;;;;;;10399106;28;19993;-80
2022/11/07 13:50:58;;;;;;;;;;;;;;;;;;10375691;28;19928;-79
2022/11/07 13:56:00;;;;;;;;;;;;;;;;;;10382244;28;19945;-80
2022/11/07 14:01:01;;;;;;;;;;;;;;;;;;10381826;28;19930;-78
2022/11/07 14:06:02;;;;;;;;;;;;;;;;;;10401888;28;19930;-79
2022/11/07 14:11:02;;;;;;;;;;;;;;;;;;10417203;28;19922;-80
2022/11/07 14:16:02;;;;;;;;;;;;;;;;;;10404318;28;19928;-80
2022/11/07 14:21:03;;;;;;;;;;;;;;;;;;10428155;28;19991;-79
2022/11/07 14:26:03;;;;;;;;;;;;;;;;;;10389948;28;20356;-76
2022/11/07 14:31:07;;;;;;;;;;;;;;;;;;10391001;28;20391;-82
2022/11/07 14:36:12;;;;;;;;;;;;;;;;;;10378983;28;20373;-79
2022/11/07 14:41:13;;;;;;;;;;;;;;;;;;10394165;28;19924;-78
2022/11/07 14:46:13;;;;;;;;;;;;;;;;;;10408967;28;19935;-80
2022/11/07 14:51:13;;;;;;;;;;;;;;;;;;10389739;28;20519;-78
2022/11/07 14:56:16;;;;;;;;;;;;;;;;;;10401064;28;19925;-79
2022/11/07 15:01:21;;;;;;;;;;;;;;;;;;10418946;28;20037;-78
2022/11/07 15:06:21;;;;;;;;;;;;;;;;;;10421648;28;19925;-77
2022/11/07 15:11:23;;;;;;;;;;;;;;;;;;10428060;28;19926;-79
2022/11/07 15:16:23;;;;;;;;;;;;;;;;;;10432854;28;19952;-79
2022/11/07 15:21:25;;;;;;;;;;;;;;;;;;10436557;28;20377;-77
2022/11/07 15:26:25;;;;;;;;;;;;;;;;;;10431818;28;19936;-80
2022/11/07 15:31:26;;;;;;;;;;;;;;;;;;10434398;28;19928;-78
2022/11/07 15:36:26;;;;;;;;;;;;;;;;;;10418735;28;20285;-76
2022/11/07 15:41:27;;;;;;;;;;;;;;;;;;10397852;28;19923;-77
2022/11/07 15:46:27;;;;;;;;;;;;;;;;;;10414941;28;19929;-78
2022/11/07 15:51:27;;;;;;;;;;;;;;;;;;10403795;28;20040;-77
2022/11/07 15:56:28;;;;;;;;;;;;;;;;;;10391844;28;19921;-79
2022/11/07 16:01:28;;;;;;;;;;;;;;;;;;10392278;28;19932;-79
2022/11/07 16:06:32;;;;;;;;;;;;;;;;;;10390424;28;19933;-79
2022/11/07 16:11:36;;;;;;;;;;;;;;;;;;10388869;28;19933;-77
2022/11/07 16:16:40;;;;;;;;;;;;;;;;;;10396760;28;19969;-78
2022/11/07 16:21:40;;;;;;;;;;;;;;;;;;10399700;28;20322;-78
2022/11/07 16:26:41;;;;;;;;;;;;;;;;;;10351299;28;19957;-78
2022/11/07 16:31:44;;;;;;;;;;;;;;;;;;10367130;28;19917;-78
2022/11/07 16:36:44;;;;;;;;;;;;;;;;;;10378705;28;20021;-76
2022/11/07 16:41:46;;;;;;;;;;;;;;;;;;10350307;28;19921;-77
2022/11/07 16:46:46;;;;;;;;;;;;;;;;;;10367584;28;19932;-76
2022/11/07 16:51:46;;;;;;;;;;;;;;;;;;10343464;28;20433;-77
2022/11/07 16:56:50;;;;;;;;;;;;;;;;;;10373279;28;20396;-75
2022/11/07 17:01:50;;;;;;;;;;;;;;;;;;10348296;28;19928;-77
2022/11/07 17:06:51;;;;;;;;;;;;;;;;;;10346346;28;19925;-77
2022/11/07 17:11:51;;;;;;;;;;;;;;;;;;10340850;28;19914;-79
2022/11/07 17:16:53;;;;;;;;;;;;;;;;;;10351258;28;19924;-78
2022/11/07 17:21:54;;;;;;;;;;;;;;;;;;10353103;28;20000;-77
2022/11/07 17:26:54;;;;;;;;;;;;;;;;;;10356472;28;20009;-77
2022/11/07 17:31:57;;;;;;;;;;;;;;;;;;10372373;28;19955;-77
2022/11/07 17:36:59;;;;;;;;;;;;;;;;;;10365034;28;20020;-76
2022/11/07 17:42:04;;;;;;;;;;;;;;;;;;10349016;28;19963;-78
2022/11/07 17:47:05;;;;;;;;;;;;;;;;;;10338901;28;20191;-76
2022/11/07 17:52:05;;;;;;;;;;;;;;;;;;10350800;28;19913;-77
2022/11/07 17:57:07;;;;;;;;;;;;;;;;;;10351911;28;20008;-77
2022/11/07 18:02:08;;;;;;;;;;;;;;;;;;10364068;28;19968;-78
2022/11/07 18:07:09;;;;;;;;;;;;;;;;;;10371574;28;19957;-77
2022/11/07 18:12:09;;;;;;;;;;;;;;;;;;10365328;28;20274;-79
2022/11/07 18:17:11;;;;;;;;;;;;;;;;;;10355028;28;19917;-78
2022/11/07 18:22:12;;;;;;;;;;;;;;;;;;10369691;28;20028;-79
2022/11/07 18:27:12;;;;;;;;;;;;;;;;;;10398028;28;19918;-82
2022/11/07 18:32:13;;;;;;;;;;;;;;;;;;10400941;28;19920;-77
2022/11/07 18:37:17;;;;;;;;;;;;;;;;;;10379467;28;20047;-77
2022/11/07 18:42:18;;;;;;;;;;;;;;;;;;10345150;28;19952;-78
2022/11/07 18:47:19;;;;;;;;;;;;;;;;;;10355103;28;19928;-78
2022/11/07 18:52:20;;;;;;;;;;;;;;;;;;10356980;28;19921;-81
2022/11/07 18:57:22;;;;;;;;;;;;;;;;;;10356697;28;20346;-78
2022/11/07 19:02:23;;;;;;;;;;;;;;;;;;10384496;28;20037;-78
2022/11/07 19:07:25;;;;;;;;;;;;;;;;;;10373653;28;19918;-81
2022/11/07 19:12:28;;;;;;;;;;;;;;;;;;10366833;28;20055;-79
2022/11/07 19:17:28;;;;;;;;;;;;;;;;;;10350829;28;19987;-78
2022/11/07 19:22:29;;;;;;;;;;;;;;;;;;10362165;28;19929;-80
2022/11/07 19:27:31;;;;;;;;;;;;;;;;;;10358719;28;19921;-80
2022/11/07 19:32:32;;;;;;;;;;;;;;;;;;10360374;28;19925;-81
2022/11/07 19:37:34;;;;;;;;;;;;;;;;;;10369157;28;19921;-80
2022/11/07 19:42:41;;;;;;;;;;;;;;;;;;10365561;28;19936;-80
2022/11/07 19:47:41;;;;;;;;;;;;;;;;;;10365714;28;19949;-78
2022/11/07 19:52:41;;;;;;;;;;;;;;;;;;10365743;28;19933;-78
2022/11/07 19:57:42;;;;;;;;;;;;;;;;;;10346312;28;19921;-77
2022/11/07 20:02:42;;;;;;;;;;;;;;;;;;10388477;28;19941;-77
2022/11/07 20:07:42;;;;;;;;;;;;;;;;;;10385007;28;20254;-78
2022/11/07 20:12:43;;;;;;;;;;;;;;;;;;10342886;28;19933;-78
2022/11/07 20:17:43;;;;;;;;;;;;;;;;;;10357547;28;19917;-78
2022/11/07 20:22:51;;;;;;;;;;;;;;;;;;10328866;28;19932;-78
2022/11/07 20:27:53;;;;;;;;;;;;;;;;;;10365438;28;19925;-77
2022/11/07 20:32:54;;;;;;;;;;;;;;;;;;10342527;28;19933;-78
2022/11/07 20:37:58;;;;;;;;;;;;;;;;;;10349950;28;20315;-78
2022/11/07 20:43:00;;;;;;;;;;;;;;;;;;10352351;28;19926;-78
2022/11/07 20:48:01;;;;;;;;;;;;;;;;;;10346154;28;20362;-77
2022/11/07 20:53:01;;;;;;;;;;;;;;;;;;10333035;28;20016;-79
2022/11/07 20:58:03;;;;;;;;;;;;;;;;;;10329605;28;19922;-80
2022/11/07 21:03:05;;;;;;;;;;;;;;;;;;10348717;28;19939;-77
2022/11/07 21:08:05;;;;;;;;;;;;;;;;;;10351084;28;20390;-77
2022/11/07 21:13:05;;;;;;;;;;;;;;;;;;10341544;28;20372;-77
2022/11/07 21:18:07;;;;;;;;;;;;;;;;;;10305711;28;19917;-78
2022/11/07 21:23:09;;;;;;;;;;;;;;;;;;10355908;28;19930;-80
2022/11/07 21:28:10;;;;;;;;;;;;;;;;;;10334566;28;19918;-78
2022/11/07 21:33:13;;;;;;;;;;;;;;;;;;10373239;28;19929;-79
2022/11/07 21:38:25;;;;;;;;;;;;;;;;;;10344938;28;19973;-79
2022/11/07 21:43:28;;;;;;;;;;;;;;;;;;10321561;28;19929;-80
2022/11/07 21:48:33;;;;;;;;;;;;;;;;;;10345468;28;19918;-80
2022/11/07 21:53:33;;;;;;;;;;;;;;;;;;10354897;28;19926;-79
2022/11/07 21:58:35;;;;;;;;;;;;;;;;;;10351512;28;19975;-79
2022/11/07 22:03:35;;;;;;;;;;;;;;;;;;10361587;28;19980;-79
2022/11/07 22:08:36;;;;;;;;;;;;;;;;;;10356932;28;19960;-80
2022/11/07 22:13:37;;;;;;;;;;;;;;;;;;10368856;28;20033;-81
2022/11/07 22:18:40;;;;;;;;;;;;;;;;;;10373236;28;19928;-79
2022/11/07 22:23:41;;;;;;;;;;;;;;;;;;10346798;28;19932;-80
2022/11/07 22:28:43;;;;;;;;;;;;;;;;;;10363924;28;19917;-80
2022/11/07 22:34:03;;;;;;;;;;;;;;;;;;10360745;28;19948;-80
2022/11/07 22:39:03;;;;;;;;;;;;;;;;;;10341913;28;19921;-78
2022/11/07 22:44:05;;;;;;;;;;;;;;;;;;10353376;28;19925;-78
2022/11/07 22:49:06;;;;;;;;;;;;;;;;;;10349897;28;19929;-79
2022/11/07 22:54:08;;;;;;;;;;;;;;;;;;10386611;28;19952;-79
2022/11/07 22:59:09;;;;;;;;;;;;;;;;;;10396056;28;19963;-79
2022/11/07 23:04:09;;;;;;;;;;;;;;;;;;10347025;28;20002;-79
2022/11/07 23:09:09;;;;;;;;;;;;;;;;;;10359550;28;19922;-80
2022/11/07 23:14:09;;;;;;;;;;;;;;;;;;10351507;28;19918;-79
2022/11/07 23:19:11;;;;;;;;;;;;;;;;;;10342388;28;19924;-80
2022/11/07 23:24:13;;;;;;;;;;;;;;;;;;10363672;28;19999;-79
2022/11/07 23:29:13;;;;;;;;;;;;;;;;;;10352882;28;19922;-79
2022/11/07 23:34:14;;;;;;;;;;;;;;;;;;10341083;28;19928;-80
2022/11/07 23:39:15;;;;;;;;;;;;;;;;;;10334105;28;19922;-78
2022/11/07 23:44:15;;;;;;;;;;;;;;;;;;10352965;28;20001;-80
2022/11/07 23:51:00;;;;;;;;;;;;;;;;;;10407219;28;19906;-79
